• Join FlightAware (Why Join?)
  • Login
  • US Flag 
09:11PM EDT


 

Airport Tracker/Info


-or-


 

Live Flight TrackerFlight Track Log ✈ SWA3608 ✈ 12-Apr-2013 ✈ KMDW - KTUS

Flight Track Log - Related Links

Times and Time Zones

All times are in EDT time to prevent confusion due to time zone crossing. See the SWA3608 flight status page for this flight to view local times or setup timezone preferences in your user account.

Time Position Orientation Groundspeed Altitude Reporting Facility
EDT Latitude Longitude Course Direction KTS MPH feet Rate Location/Type
08:15PM 41.7500 -87.8667 251° West 195 224 3,300  Level Chicago TRACON
08:16PM 41.7386 -87.9383 258° West 199 229 5,300 2,760 Climbing Chicago Center
08:18PM 41.7556 -88.0428 282° West 248 285 9,300 3,240 Climbing Chicago Center
08:19PM 41.7789 -88.1303 290° West 251 289 12,000 1,500 Climbing Chicago Center
08:20PM 41.5590 -88.5686 250° West  Level Estimated
08:20PM 41.7856 -88.2261 275° West 264 304 12,500  Level Chicago Center
08:21PM 41.7842 -88.3406 269° West 303 349 14,100 2,160 Climbing Chicago Center
08:22PM 41.7817 -88.4678 269° West 338 389 17,000 3,180 Climbing Chicago Center
08:23PM 41.7781 -88.6197 268° West 343 395 20,700 2,820 Climbing Chicago Center
08:24PM 41.7747 -88.7492 268° West 348 400 22,900 1,800 Climbing Chicago Center
08:25PM 41.7439 -88.8756 252° West 357 411 24,500 1,680 Climbing Chicago Center
08:26PM 41.7139 -89.0069 253° West 368 423 26,400 1,680 Climbing Chicago Center
08:27PM 41.6825 -89.1383 252° West 373 429 28,000 1,740 Climbing Chicago Center
08:28PM 41.6386 -89.3006 250° West 387 445 30,100 1,740 Climbing Chicago Center
08:29PM 41.6008 -89.4339 249° West 385 443 31,700 1,500 Climbing Chicago Center
08:30PM 41.5678 -89.5556 250° West 384 442 33,200 1,260 Climbing Chicago Center
08:31PM 41.5300 -89.6889 249° West 385 443 34,300 1,200 Climbing Chicago Center
08:32PM 41.4828 -89.8544 249° West 398 458 35,700 1,380 Climbing Chicago Center
08:33PM 41.4436 -89.9881 249° West 391 450 37,200 900 Climbing Chicago Center
08:34PM 41.4047 -90.1203 249° West 387 445 37,600 360 Climbing Chicago Center
08:35PM 41.3656 -90.2581 249° West 397 457 38,000 180 Climbing Chicago Center
08:36PM 41.3244 -90.3989 249° West 406 467 38,000  Level Chicago Center
08:37PM 41.2744 -90.5667 248° West 409 471 38,000  Level Chicago Center
08:38PM 41.2322 -90.7106 249° West 416 479 38,000  Level Chicago Center
08:39PM 41.1900 -90.8486 248° West 407 468 38,000  Level Chicago Center
08:40PM 41.1475 -90.9869 248° West 405 466 38,000  Level Chicago Center
08:41PM 41.1064 -91.1261 249° West 406 467 38,000  Level Chicago Center
08:42PM 41.0644 -91.2633 248° West 405 466 38,000  Level Chicago Center
08:43PM 41.0139 -91.4275 248° West 403 464 38,000  Level Chicago Center
08:44PM 40.9772 -91.5483 248° West 402 463 38,000  Level Chicago Center
08:45PM 40.9353 -91.6839 248° West 402 463 38,000  Level Chicago Center
08:46PM 40.8850 -91.8464 248° West 401 461 38,000  Level Chicago Center
08:47PM 40.8431 -91.9803 248° West 399 459 38,000  Level Chicago Center
08:48PM 40.8011 -92.1136 247° West 397 457 38,000  Level Chicago Center
08:50PM 40.7597 -92.2472 248° West 398 458 38,000  Level Chicago Center
08:51PM 40.7167 -92.3803 247° West 398 458 38,000  Level Chicago Center
08:52PM 40.6661 -92.5383 247° West 396 456 38,000  Level Chicago Center
08:53PM 40.6236 -92.6697 247° West 397 457 38,000  Level Chicago Center
08:53PM 40.6147 -92.6967 247° West 398 458 38,000  Level Kansas City Center
08:54PM 40.5669 -92.8464 247° West 391 450 38,000  Level Kansas City Center
08:55PM 40.5244 -92.9728 246° West 391 450 38,000  Level Kansas City Center
08:56PM 40.4800 -93.1119 247° West 393 452 38,000  Level Kansas City Center
08:57PM 40.4372 -93.2414 247° West 391 450 38,000  Level Kansas City Center
08:58PM 40.3961 -93.3689 247° West 386 444 38,000  Level Kansas City Center
08:59PM 40.3544 -93.4947 247° West 383 441 38,000  Level Kansas City Center
09:00PM 40.3133 -93.6206 247° West 379 436 38,000  Level Kansas City Center
09:01PM 40.2633 -93.7728 247° West 382 440 38,000  Level Kansas City Center
09:02PM 40.2214 -93.8981 246° West 380 437 38,000  Level Kansas City Center
09:03PM 40.1792 -94.0236 246° West 380 437 38,000  Level Kansas City Center
09:04PM 40.1339 -94.1564 246° West 377 434 38,000  Level Kansas City Center
09:05PM 40.0922 -94.2753 245° Southwest 377 434 38,000  Level Kansas City Center
09:06PM 40.0453 -94.4158 246° West 379 436 38,000  Level Kansas City Center
09:07PM 40.0047 -94.5356 246° West 377 434 38,000  Level Kansas City Center
09:08PM 39.9561 -94.6764 246° West 380 437 38,000  Level Kansas City Center
09:09PM 39.9147 -94.7961 246° West 381 438 38,000  Level Kansas City Center
09:10PM 39.8722 -94.9183 246° West 385 443 38,000  Level Kansas City Center
09:11PM 39.8228 -95.0594 246° West 385 443 38,000  Level Kansas City Center
09:12PM 39.7806 -95.1817 246° West 387 445 38,000  Level Kansas City Center
09:13PM 39.7317 -95.3225 246° West 385 443 38,000  Level Kansas City Center
09:14PM 39.6886 -95.4433 245° Southwest 387 445 38,000  Level Kansas City Center
09:15PM 39.6306 -95.5794 241° Southwest 387 445 38,000  Level Kansas City Center
09:16PM 39.5800 -95.6953 241° Southwest 387 445 38,000  Level Kansas City Center
09:18PM 39.5211 -95.8297 240° Southwest 386 444 38,000  Level Kansas City Center
09:19PM 39.4700 -95.9444 240° Southwest 385 443 38,000  Level Kansas City Center
09:20PM 39.4197 -96.0583 240° Southwest 382 440 38,000  Level Kansas City Center
09:21PM 39.3689 -96.1756 241° Southwest 380 437 38,000  Level Kansas City Center
09:22PM 39.3144 -96.2944 239° Southwest 383 441 38,000  Level Kansas City Center
09:23PM 39.2511 -96.4411 241° Southwest 389 448 38,000  Level Kansas City Center
09:24PM 39.1994 -96.5558 240° Southwest 388 447 38,000  Level Kansas City Center
09:25PM 39.1464 -96.6719 240° Southwest 390 449 38,000  Level Kansas City Center
09:26PM 39.0847 -96.8075 240° Southwest 392 451 38,000  Level Kansas City Center
09:27PM 39.0325 -96.9242 240° Southwest 393 452 38,000  Level Kansas City Center
09:28PM 38.9775 -97.0483 240° Southwest 396 456 38,000  Level Kansas City Center
09:29PM 38.9225 -97.1697 240° Southwest 395 455 38,000  Level Kansas City Center
09:30PM 38.8675 -97.2886 239° Southwest 390 449 38,000  Level Kansas City Center
09:31PM 38.8019 -97.4319 240° Southwest 388 447 38,000  Level Kansas City Center
09:32PM 38.7531 -97.5389 240° Southwest 386 444 38,000  Level Kansas City Center
09:33PM 38.6942 -97.6667 239° Southwest 384 442 38,000  Level Kansas City Center
09:34PM 38.6392 -97.7819 239° Southwest 380 437 38,000  Level Kansas City Center
09:35PM 38.5861 -97.8978 240° Southwest 379 436 38,000  Level Kansas City Center
09:36PM 38.5325 -98.0108 239° Southwest 374 430 38,000  Level Kansas City Center
09:37PM 38.4786 -98.1269 239° Southwest 382 440 38,000  Level Kansas City Center
09:38PM 38.4239 -98.2428 239° Southwest 384 442 38,000  Level Kansas City Center
09:39PM 38.3581 -98.3817 239° Southwest 383 441 38,000  Level Kansas City Center
09:40PM 38.3033 -98.4956 239° Southwest 380 437 38,000  Level Kansas City Center
09:41PM 38.2500 -98.6089 239° Southwest 376 433 38,000  Level Kansas City Center
09:42PM 38.1842 -98.7156 232° Southwest 380 437 38,000  Level Kansas City Center
09:43PM 38.1172 -98.8217 231° Southwest 384 442 38,000  Level Kansas City Center
09:44PM 38.0489 -98.9281 231° Southwest 388 447 38,000  Level Kansas City Center
09:45PM 37.9803 -99.0322 230° Southwest 387 445 38,000  Level Kansas City Center
09:46PM 37.9122 -99.1378 231° Southwest 387 445 38,000  Level Kansas City Center
09:47PM 37.8322 -99.2681 232° Southwest 390 449 38,000  Level Kansas City Center
09:48PM 37.7656 -99.3756 232° Southwest 390 449 38,000  Level Kansas City Center
09:49PM 37.7039 -99.4778 233° Southwest 389 448 38,000  Level Kansas City Center
09:50PM 37.6392 -99.6044 237° Southwest 387 445 38,000  Level Kansas City Center
09:51PM 37.5886 -99.7161 240° Southwest 385 443 38,000  Level Kansas City Center
09:52PM 37.5339 -99.8258 238° Southwest 385 443 38,000 300 Level Kansas City Center
09:53PM 37.4722 -99.9544 239° Southwest 383 441 38,700 780 Climbing Kansas City Center
09:54PM 37.4175 -100.0642 238° Southwest 386 444 39,600 600 Climbing Kansas City Center
09:55PM 37.3561 -100.1914 239° Southwest 382 440 40,000 180 Climbing Kansas City Center
09:56PM 37.3031 -100.3006 239° Southwest 381 438 40,000  Level Kansas City Center
09:57PM 37.2492 -100.4092 238° Southwest 381 438 40,000  Level Kansas City Center
09:58PM 37.1856 -100.5372 238° Southwest 384 442 40,000  Level Kansas City Center
09:59PM 37.1308 -100.6481 238° Southwest 387 445 40,000  Level Kansas City Center
10:01PM 37.0753 -100.7592 238° Southwest 389 448 40,000  Level Kansas City Center
10:02PM 37.0094 -100.8906 238° Southwest 395 455 40,000  Level Kansas City Center
10:03PM 36.9522 -101.0033 238° Southwest 398 458 40,000  Level Kansas City Center
10:04PM 36.8872 -101.1325 238° Southwest 395 455 40,000  Level Kansas City Center
10:05PM 36.8311 -101.2444 238° Southwest 396 456 40,000  Level Kansas City Center
10:06PM 36.7744 -101.3547 237° Southwest 395 455 40,000  Level Kansas City Center
10:06PM 36.7281 -101.4478 238° Southwest 395 455 40,000  Level Albuquerque Center
10:07PM 36.6714 -101.5597 238° Southwest 396 456 40,000  Level Albuquerque Center
10:08PM 36.6061 -101.6878 238° Southwest 393 452 40,000  Level Albuquerque Center
10:09PM 36.5478 -101.7994 237° Southwest 391 450 40,000  Level Albuquerque Center
10:10PM 36.4908 -101.9108 238° Southwest 386 444 40,000  Level Albuquerque Center
10:11PM 36.4319 -102.0222 237° Southwest 387 445 40,000  Level Albuquerque Center
10:12PM 36.3725 -102.1383 238° Southwest 396 456 40,000  Level Albuquerque Center
10:13PM 36.3131 -102.2525 237° Southwest 397 457 40,000  Level Albuquerque Center
10:14PM 36.2531 -102.3669 237° Southwest 398 458 40,000  Level Albuquerque Center
10:16PM 36.1831 -102.5011 237° Southwest 391 450 40,000  Level Albuquerque Center
10:17PM 36.1236 -102.6117 236° Southwest 389 448 40,000  Level Albuquerque Center
10:18PM 36.0653 -102.7242 237° Southwest 389 448 40,000  Level Albuquerque Center
10:19PM 36.0064 -102.8342 237° Southwest 387 445 40,000  Level Albuquerque Center
10:20PM 35.9425 -102.9550 237° Southwest 390 449 40,000  Level Albuquerque Center
10:21PM 35.8839 -103.0683 237° Southwest 389 448 40,000  Level Albuquerque Center
10:22PM 35.8364 -103.1869 244° Southwest 386 444 40,000  Level Albuquerque Center
10:23PM 35.7900 -103.3078 245° Southwest 386 444 40,000  Level Albuquerque Center
10:24PM 35.7417 -103.4289 244° Southwest 389 448 40,000  Level Albuquerque Center
10:25PM 35.6947 -103.5506 245° Southwest 391 450 40,000  Level Albuquerque Center
10:26PM 35.6458 -103.6725 244° Southwest 393 452 40,000  Level Albuquerque Center
10:27PM 35.5972 -103.7942 244° Southwest 394 453 40,000  Level Albuquerque Center
10:28PM 35.5497 -103.9167 245° Southwest 395 455 40,000  Level Albuquerque Center
10:29PM 35.4933 -104.0561 244° Southwest 392 451 40,000  Level Albuquerque Center
10:30PM 35.4456 -104.1756 244° Southwest 391 450 40,000  Level Albuquerque Center
10:31PM 35.3972 -104.2944 244° Southwest 391 450 40,000  Level Albuquerque Center
10:32PM 35.3492 -104.4122 243° Southwest 390 449 40,000  Level Albuquerque Center
10:33PM 35.3000 -104.5375 244° Southwest 387 445 40,000  Level Albuquerque Center
10:34PM 35.2514 -104.6511 242° Southwest 395 455 40,000  Level Albuquerque Center
10:35PM 35.2028 -104.7731 244° Southwest 397 457 40,000  Level Albuquerque Center
10:36PM 35.1525 -104.8947 243° Southwest 398 458 40,000  Level Albuquerque Center
10:37PM 35.1028 -105.0178 244° Southwest 401 461 40,000  Level Albuquerque Center
10:38PM 35.0525 -105.1400 243° Southwest 400 460 40,000  Level Albuquerque Center
10:39PM 34.9944 -105.2828 244° Southwest 400 460 40,000  Level Albuquerque Center
10:40PM 34.9425 -105.4044 243° Southwest 400 460 40,000  Level Albuquerque Center
10:41PM 34.8928 -105.5267 244° Southwest 400 460 40,000  Level Albuquerque Center
10:42PM 34.8411 -105.6472 242° Southwest 398 458 40,000  Level Albuquerque Center
10:43PM 34.7908 -105.7692 243° Southwest 400 460 40,000  Level Albuquerque Center
10:44PM 34.7372 -105.8906 242° Southwest 401 461 40,000  Level Albuquerque Center
10:45PM 34.6861 -106.0114 243° Southwest 401 461 40,000  Level Albuquerque Center
10:46PM 34.6347 -106.1322 243° Southwest 399 459 40,000  Level Albuquerque Center
10:47PM 34.5822 -106.2536 242° Southwest 404 465 40,000  Level Albuquerque Center
10:48PM 34.5294 -106.3772 243° Southwest 409 471 40,000  Level Albuquerque Center
10:49PM 34.4775 -106.4978 242° Southwest 406 467 40,000  Level Albuquerque Center
10:50PM 34.4256 -106.6156 242° Southwest 397 457 40,000  Level Albuquerque Center
10:51PM 34.3733 -106.7372 243° Southwest 402 463 40,000  Level Albuquerque Center
10:52PM 34.3083 -106.8553 236° Southwest 416 479 40,000  Level Albuquerque Center
10:53PM 34.2297 -106.9539 226° Southwest 412 474 40,000  Level Albuquerque Center
10:54PM 34.1486 -107.0503 225° Southwest 409 471 40,000  Level Albuquerque Center
10:55PM 34.0694 -107.1517 227° Southwest 412 474 40,000  Level Albuquerque Center
10:56PM 33.9728 -107.2689 225° Southwest 413 475 40,000  Level Albuquerque Center
10:57PM 33.8922 -107.3656 225° Southwest 412 474 40,000  Level Albuquerque Center
10:58PM 33.8133 -107.4561 224° Southwest 403 464 40,000  Level Albuquerque Center
10:59PM 33.7331 -107.5517 225° Southwest 406 467 40,000  Level Albuquerque Center
11:00PM 33.6522 -107.6478 225° Southwest 409 471 40,000  Level Albuquerque Center
11:01PM 33.5719 -107.7456 225° Southwest 412 474 40,000  Level Albuquerque Center
11:03PM 33.4906 -107.8417 225° Southwest 413 475 40,000  Level Albuquerque Center
11:04PM 33.4208 -107.9525 233° Southwest 423 487 40,000 -420 Level Albuquerque Center
11:05PM 33.3506 -108.0914 239° Southwest 413 475 39,200 -720 Descending Albuquerque Center
11:06PM 33.2989 -108.1897 238° Southwest 411 473 38,600 -780 Descending Albuquerque Center
11:07PM 33.2378 -108.3072 238° Southwest 417 480 37,700 -1,080 Descending Albuquerque Center
11:08PM 33.1642 -108.4492 238° Southwest 421 484 36,500 -1,080 Descending Albuquerque Center
11:09PM 33.1033 -108.5669 238° Southwest 424 488 35,600 -1,020 Descending Albuquerque Center
11:10PM 33.0425 -108.6839 238° Southwest 418 481 34,500 -1,080 Descending Albuquerque Center
11:11PM 32.9847 -108.7936 238° Southwest 415 478 33,500 -900 Descending Albuquerque Center
11:12PM 32.9247 -108.9122 239° Southwest 417 480 32,700 -660 Descending Albuquerque Center
11:13PM 32.8583 -109.0347 237° Southwest 433 498 32,200 -360 Descending Albuquerque Center
11:14PM 32.7831 -109.1733 237° Southwest 447 514 32,000 -120 Descending Albuquerque Center
11:15PM 32.7178 -109.2969 238° Southwest 446 513 32,000  Level Albuquerque Center
11:16PM 32.6514 -109.4197 237° Southwest 446 513 32,000 -1,080 Level Albuquerque Center
11:17PM 32.5869 -109.5403 238° Southwest 440 506 29,900 -2,400 Descending Albuquerque Center
11:18PM 32.5131 -109.6778 238° Southwest 420 483 27,200 -2,400 Descending Albuquerque Center
11:19PM 32.4569 -109.7894 239° Southwest 405 466 25,100 -2,100 Descending Albuquerque Center
11:20PM 32.3981 -109.8897 235° Southwest 382 440 23,000 -2,040 Descending Albuquerque Center
11:21PM 32.3428 -109.9894 237° Southwest 369 425 21,000 -1,920 Descending Albuquerque Center
11:22PM 32.2922 -110.0881 239° Southwest 362 417 19,100 -2,100 Descending Albuquerque Center
11:22PM 32.2597 -110.1481 237° Southwest 344 396 17,800 -1,980 Descending Albuquerque Center
11:23PM 32.2428 -110.1817 239° Southwest 346 398 17,100 -2,160 Descending Albuquerque Center
11:23PM 32.2206 -110.2197 235° Southwest 337 388 16,100 -1,980 Descending Albuquerque Center
11:24PM 32.1939 -110.2728 239° Southwest 335 386 15,100 -1,980 Descending Albuquerque Center
11:24PM 32.1697 -110.3194 239° Southwest 338 389 14,100 -1,620 Descending Albuquerque Center
11:25PM 32.1489 -110.3708 244° Southwest 333 383 13,500 -1,620 Descending Albuquerque Center
11:25PM 32.1267 -110.4147 239° Southwest 329 379 12,500 -2,460 Descending Albuquerque Center
11:26PM 32.1006 -110.4803 245° Southwest 327 376 11,000 -1,500 Descending Albuquerque Center
11:26PM 32.0856 -110.5092 239° Southwest 327 376 11,000 -120 Level Albuquerque Center
11:27PM 32.0631 -110.5650 245° Southwest 308 354 10,900 -720 Descending Albuquerque Center
11:27PM 32.0522 -110.5889 242° Southwest 274 315 10,300 -1,980 Descending Albuquerque Center
11:28PM 32.0289 -110.6436 243° Southwest 282 325 8,900 -1,800 Descending Albuquerque Center
11:28PM 32.0150 -110.6719 240° Southwest 282 325 8,500 -1,200 Descending Albuquerque Center
11:29PM 31.9886 -110.7286 241° Southwest 281 323 7,700 -720 Descending Albuquerque Center
11:29PM 31.9789 -110.7497 242° Southwest 261 300 7,800 -120 Climbing Albuquerque Center
11:30PM 31.9897 -110.7994 284° West 257 296 7,600 -780 Descending Albuquerque Center
11:31PM 32.0267 -110.8294 325° Northwest 194 223 6,500 -720 Descending Albuquerque Center
11:32PM 32.0600 -110.8614 321° Northwest 187 215 6,200 -1,620 Descending Albuquerque Center
11:33PM 32.0894 -110.9083 307° West 153 176 3,100 -2,820 Descending Albuquerque Center
11:35PM 32.1000 -110.9333 310° West  Level FlightAware Approximate
11:42PM 32.1161 -110.9410 310° West  Level Estimated